sensor_id;sensor_type;location;lat;lon;timestamp;temperature;humidity
47765;DHT22;33529;49.242;8.670;2023-08-07T00:02:02;12.20;99.90
47765;DHT22;33529;49.242;8.670;2023-08-07T00:04:30;12.20;99.90
47765;DHT22;33529;49.242;8.670;2023-08-07T00:06:57;12.20;99.90
47765;DHT22;33529;49.242;8.670;2023-08-07T00:09:24;12.20;99.90
47765;DHT22;33529;49.242;8.670;2023-08-07T00:11:51;12.10;99.90
47765;DHT22;33529;49.242;8.670;2023-08-07T00:14:17;12.20;99.90
47765;DHT22;33529;49.242;8.670;2023-08-07T00:16:44;12.20;99.90
47765;DHT22;33529;49.242;8.670;2023-08-07T00:19:11;12.20;99.90
47765;DHT22;33529;49.242;8.670;2023-08-07T00:21:38;12.20;99.90
47765;DHT22;33529;49.242;8.670;2023-08-07T00:24:05;12.20;99.90
47765;DHT22;33529;49.242;8.670;2023-08-07T00:26:32;12.10;99.90
47765;DHT22;33529;49.242;8.670;2023-08-07T00:28:59;12.10;99.90
47765;DHT22;33529;49.242;8.670;2023-08-07T00:31:26;12.20;99.90
47765;DHT22;33529;49.242;8.670;2023-08-07T00:33:58;12.20;99.90
47765;DHT22;33529;49.242;8.670;2023-08-07T00:36:26;12.10;99.90
47765;DHT22;33529;49.242;8.670;2023-08-07T00:38:55;12.20;99.90
47765;DHT22;33529;49.242;8.670;2023-08-07T00:41:22;12.20;99.90
47765;DHT22;33529;49.242;8.670;2023-08-07T00:43:49;12.10;99.90
47765;DHT22;33529;49.242;8.670;2023-08-07T00:46:16;12.10;99.90
47765;DHT22;33529;49.242;8.670;2023-08-07T00:48:44;12.10;99.90
47765;DHT22;33529;49.242;8.670;2023-08-07T00:51:11;12.20;99.90
47765;DHT22;33529;49.242;8.670;2023-08-07T00:53:39;12.10;99.90
47765;DHT22;33529;49.242;8.670;2023-08-07T00:56:06;12.20;99.90
47765;DHT22;33529;49.242;8.670;2023-08-07T00:58:34;12.20;99.90
47765;DHT22;33529;49.242;8.670;2023-08-07T01:01:02;12.10;99.90
47765;DHT22;33529;49.242;8.670;2023-08-07T01:03:29;12.10;99.90
47765;DHT22;33529;49.242;8.670;2023-08-07T01:05:56;12.10;99.90
47765;DHT22;33529;49.242;8.670;2023-08-07T01:08:24;12.10;99.90
47765;DHT22;33529;49.242;8.670;2023-08-07T01:13:31;12.10;99.90
47765;DHT22;33529;49.242;8.670;2023-08-07T01:16:04;12.10;99.90
47765;DHT22;33529;49.242;8.670;2023-08-07T01:18:35;12.10;99.90
47765;DHT22;33529;49.242;8.670;2023-08-07T01:21:03;12.10;99.90
47765;DHT22;33529;49.242;8.670;2023-08-07T01:23:30;12.00;99.90
47765;DHT22;33529;49.242;8.670;2023-08-07T01:25:57;12.00;99.90
47765;DHT22;33529;49.242;8.670;2023-08-07T01:28:32;12.10;99.90
47765;DHT22;33529;49.242;8.670;2023-08-07T01:31:03;12.00;99.90
47765;DHT22;33529;49.242;8.670;2023-08-07T01:33:59;12.10;99.90
47765;DHT22;33529;49.242;8.670;2023-08-07T01:36:29;12.10;99.90
47765;DHT22;33529;49.242;8.670;2023-08-07T01:39:01;12.00;99.90
47765;DHT22;33529;49.242;8.670;2023-08-07T01:41:29;12.00;99.90
47765;DHT22;33529;49.242;8.670;2023-08-07T01:43:57;12.00;99.90
47765;DHT22;33529;49.242;8.670;2023-08-07T01:46:24;12.00;99.90
47765;DHT22;33529;49.242;8.670;2023-08-07T01:48:53;12.00;99.90
47765;DHT22;33529;49.242;8.670;2023-08-07T01:51:21;12.00;99.90
47765;DHT22;33529;49.242;8.670;2023-08-07T01:53:48;12.00;99.90
47765;DHT22;33529;49.242;8.670;2023-08-07T01:56:15;11.90;99.90
47765;DHT22;33529;49.242;8.670;2023-08-07T01:58:42;11.90;99.90
47765;DHT22;33529;49.242;8.670;2023-08-07T02:01:09;11.90;99.90
47765;DHT22;33529;49.242;8.670;2023-08-07T02:03:36;11.90;99.90
47765;DHT22;33529;49.242;8.670;2023-08-07T02:06:03;11.90;99.90
47765;DHT22;33529;49.242;8.670;2023-08-07T02:08:30;11.90;99.90
47765;DHT22;33529;49.242;8.670;2023-08-07T02:10:57;11.90;99.90
47765;DHT22;33529;49.242;8.670;2023-08-07T02:13:24;11.90;99.90
47765;DHT22;33529;49.242;8.670;2023-08-07T02:15:50;11.80;99.90
47765;DHT22;33529;49.242;8.670;2023-08-07T02:18:17;11.70;99.90
47765;DHT22;33529;49.242;8.670;2023-08-07T02:20:44;11.80;99.90
47765;DHT22;33529;49.242;8.670;2023-08-07T02:23:13;11.70;99.90
47765;DHT22;33529;49.242;8.670;2023-08-07T02:25:39;11.80;99.90
47765;DHT22;33529;49.242;8.670;2023-08-07T02:28:06;11.80;99.90
47765;DHT22;33529;49.242;8.670;2023-08-07T02:30:33;11.80;99.90
47765;DHT22;33529;49.242;8.670;2023-08-07T02:33:00;11.80;99.90
47765;DHT22;33529;49.242;8.670;2023-08-07T02:35:27;11.80;99.90
47765;DHT22;33529;49.242;8.670;2023-08-07T02:37:53;11.80;99.90
47765;DHT22;33529;49.242;8.670;2023-08-07T02:40:20;11.80;99.90
47765;DHT22;33529;49.242;8.670;2023-08-07T02:42:47;11.90;99.90
47765;DHT22;33529;49.242;8.670;2023-08-07T02:45:14;11.80;99.90
47765;DHT22;33529;49.242;8.670;2023-08-07T02:47:41;11.90;99.90
47765;DHT22;33529;49.242;8.670;2023-08-07T02:50:08;11.80;99.90
47765;DHT22;33529;49.242;8.670;2023-08-07T02:52:34;11.90;99.90
47765;DHT22;33529;49.242;8.670;2023-08-07T02:55:01;11.90;99.90
47765;DHT22;33529;49.242;8.670;2023-08-07T02:57:28;11.90;99.90
47765;DHT22;33529;49.242;8.670;2023-08-07T02:59:55;11.90;99.90
47765;DHT22;33529;49.242;8.670;2023-08-07T03:02:22;11.90;99.90
47765;DHT22;33529;49.242;8.670;2023-08-07T03:04:49;11.90;99.90
47765;DHT22;33529;49.242;8.670;2023-08-07T03:07:16;11.90;99.90
47765;DHT22;33529;49.242;8.670;2023-08-07T03:09:45;11.90;99.90
47765;DHT22;33529;49.242;8.670;2023-08-07T03:12:13;11.90;99.90
47765;DHT22;33529;49.242;8.670;2023-08-07T03:14:40;11.80;99.90
47765;DHT22;33529;49.242;8.670;2023-08-07T03:17:07;11.90;99.90
47765;DHT22;33529;49.242;8.670;2023-08-07T03:19:34;11.90;99.90
47765;DHT22;33529;49.242;8.670;2023-08-07T03:22:04;11.90;99.90
47765;DHT22;33529;49.242;8.670;2023-08-07T03:24:31;11.90;99.90
47765;DHT22;33529;49.242;8.670;2023-08-07T03:26:59;11.90;99.90
47765;DHT22;33529;49.242;8.670;2023-08-07T03:29:26;11.90;99.90
47765;DHT22;33529;49.242;8.670;2023-08-07T03:31:54;11.90;99.90
47765;DHT22;33529;49.242;8.670;2023-08-07T03:34:21;11.90;99.90
47765;DHT22;33529;49.242;8.670;2023-08-07T03:36:48;11.90;99.90
47765;DHT22;33529;49.242;8.670;2023-08-07T03:39:15;11.90;99.90
47765;DHT22;33529;49.242;8.670;2023-08-07T03:41:42;11.90;99.90
47765;DHT22;33529;49.242;8.670;2023-08-07T03:44:11;11.90;99.90
47765;DHT22;33529;49.242;8.670;2023-08-07T03:46:38;11.90;99.90
47765;DHT22;33529;49.242;8.670;2023-08-07T03:49:05;11.90;99.90
47765;DHT22;33529;49.242;8.670;2023-08-07T03:51:32;11.90;99.90
47765;DHT22;33529;49.242;8.670;2023-08-07T03:53:59;11.90;99.90
47765;DHT22;33529;49.242;8.670;2023-08-07T03:56:26;11.90;99.90
47765;DHT22;33529;49.242;8.670;2023-08-07T03:58:54;11.90;99.90
47765;DHT22;33529;49.242;8.670;2023-08-07T04:01:24;11.90;99.90
47765;DHT22;33529;49.242;8.670;2023-08-07T04:03:50;11.90;99.90
47765;DHT22;33529;49.242;8.670;2023-08-07T04:06:17;11.90;99.90
47765;DHT22;33529;49.242;8.670;2023-08-07T04:08:45;11.90;99.90
47765;DHT22;33529;49.242;8.670;2023-08-07T04:11:12;11.90;99.90
47765;DHT22;33529;49.242;8.670;2023-08-07T04:13:39;11.90;99.90
47765;DHT22;33529;49.242;8.670;2023-08-07T04:16:06;11.90;99.90
47765;DHT22;33529;49.242;8.670;2023-08-07T04:18:33;12.00;99.90
47765;DHT22;33529;49.242;8.670;2023-08-07T04:21:01;12.00;99.90
47765;DHT22;33529;49.242;8.670;2023-08-07T04:23:29;12.00;99.90
47765;DHT22;33529;49.242;8.670;2023-08-07T04:25:55;12.00;99.90
47765;DHT22;33529;49.242;8.670;2023-08-07T04:28:23;12.00;99.90
47765;DHT22;33529;49.242;8.670;2023-08-07T04:30:51;11.90;99.90
47765;DHT22;33529;49.242;8.670;2023-08-07T04:33:19;12.00;99.90
47765;DHT22;33529;49.242;8.670;2023-08-07T04:35:47;12.00;99.90
47765;DHT22;33529;49.242;8.670;2023-08-07T04:38:15;11.90;99.90
47765;DHT22;33529;49.242;8.670;2023-08-07T04:40:49;12.00;99.90
47765;DHT22;33529;49.242;8.670;2023-08-07T04:43:17;12.00;99.90
47765;DHT22;33529;49.242;8.670;2023-08-07T04:45:44;12.00;99.90
47765;DHT22;33529;49.242;8.670;2023-08-07T04:48:13;12.00;99.90
47765;DHT22;33529;49.242;8.670;2023-08-07T04:50:40;12.00;99.90
47765;DHT22;33529;49.242;8.670;2023-08-07T04:53:07;12.00;99.90
47765;DHT22;33529;49.242;8.670;2023-08-07T04:55:35;12.00;99.90
47765;DHT22;33529;49.242;8.670;2023-08-07T04:58:01;12.00;99.90
47765;DHT22;33529;49.242;8.670;2023-08-07T05:00:28;12.00;99.90
47765;DHT22;33529;49.242;8.670;2023-08-07T05:02:56;12.10;99.90
47765;DHT22;33529;49.242;8.670;2023-08-07T05:05:23;12.10;99.90
47765;DHT22;33529;49.242;8.670;2023-08-07T05:07:50;12.10;99.90
47765;DHT22;33529;49.242;8.670;2023-08-07T05:10:17;12.20;99.90
47765;DHT22;33529;49.242;8.670;2023-08-07T05:12:44;12.20;99.90
47765;DHT22;33529;49.242;8.670;2023-08-07T05:15:11;12.10;99.90
47765;DHT22;33529;49.242;8.670;2023-08-07T05:17:38;12.10;99.90
47765;DHT22;33529;49.242;8.670;2023-08-07T05:20:05;12.10;99.90
47765;DHT22;33529;49.242;8.670;2023-08-07T05:22:32;12.20;99.90
47765;DHT22;33529;49.242;8.670;2023-08-07T05:24:59;12.20;99.90
47765;DHT22;33529;49.242;8.670;2023-08-07T05:27:27;12.20;99.90
47765;DHT22;33529;49.242;8.670;2023-08-07T05:29:54;12.20;99.90
47765;DHT22;33529;49.242;8.670;2023-08-07T05:32:21;12.30;99.90
47765;DHT22;33529;49.242;8.670;2023-08-07T05:34:48;12.40;99.90
47765;DHT22;33529;49.242;8.670;2023-08-07T05:37:15;12.40;99.90
47765;DHT22;33529;49.242;8.670;2023-08-07T05:39:41;12.40;99.90
47765;DHT22;33529;49.242;8.670;2023-08-07T05:42:08;12.40;99.90
47765;DHT22;33529;49.242;8.670;2023-08-07T05:44:36;12.40;99.90
47765;DHT22;33529;49.242;8.670;2023-08-07T05:47:03;12.40;99.90
47765;DHT22;33529;49.242;8.670;2023-08-07T05:49:30;12.40;99.90
47765;DHT22;33529;49.242;8.670;2023-08-07T05:51:57;12.40;99.90
47765;DHT22;33529;49.242;8.670;2023-08-07T05:54:25;12.40;99.90
47765;DHT22;33529;49.242;8.670;2023-08-07T05:56:52;12.40;99.90
47765;DHT22;33529;49.242;8.670;2023-08-07T05:59:18;12.40;99.90
47765;DHT22;33529;49.242;8.670;2023-08-07T06:01:45;12.40;99.90
47765;DHT22;33529;49.242;8.670;2023-08-07T06:04:12;12.40;99.90
47765;DHT22;33529;49.242;8.670;2023-08-07T06:06:39;12.40;99.90
47765;DHT22;33529;49.242;8.670;2023-08-07T06:09:07;12.40;99.90
47765;DHT22;33529;49.242;8.670;2023-08-07T06:11:34;12.40;99.90
47765;DHT22;33529;49.242;8.670;2023-08-07T06:14:01;12.40;99.90
47765;DHT22;33529;49.242;8.670;2023-08-07T06:16:28;12.40;99.90
47765;DHT22;33529;49.242;8.670;2023-08-07T06:18:55;12.40;99.90
47765;DHT22;33529;49.242;8.670;2023-08-07T06:21:22;12.50;99.90
47765;DHT22;33529;49.242;8.670;2023-08-07T06:23:49;12.50;99.90
47765;DHT22;33529;49.242;8.670;2023-08-07T06:26:16;12.50;99.90
47765;DHT22;33529;49.242;8.670;2023-08-07T06:28:43;12.60;99.90
47765;DHT22;33529;49.242;8.670;2023-08-07T06:31:11;12.70;99.90
47765;DHT22;33529;49.242;8.670;2023-08-07T06:33:38;12.70;99.90
47765;DHT22;33529;49.242;8.670;2023-08-07T06:36:06;12.70;99.90
47765;DHT22;33529;49.242;8.670;2023-08-07T06:38:34;12.70;99.90
47765;DHT22;33529;49.242;8.670;2023-08-07T06:41:01;12.70;99.90
47765;DHT22;33529;49.242;8.670;2023-08-07T06:43:28;12.80;99.90
47765;DHT22;33529;49.242;8.670;2023-08-07T06:45:56;12.80;99.90
47765;DHT22;33529;49.242;8.670;2023-08-07T06:48:23;12.80;99.90
47765;DHT22;33529;49.242;8.670;2023-08-07T06:50:50;12.80;99.90
47765;DHT22;33529;49.242;8.670;2023-08-07T06:53:18;12.80;99.90
47765;DHT22;33529;49.242;8.670;2023-08-07T06:55:46;12.80;99.90
47765;DHT22;33529;49.242;8.670;2023-08-07T06:58:13;12.80;99.90
47765;DHT22;33529;49.242;8.670;2023-08-07T07:00:40;12.90;99.90
47765;DHT22;33529;49.242;8.670;2023-08-07T07:03:07;12.90;99.90
47765;DHT22;33529;49.242;8.670;2023-08-07T07:05:36;13.00;99.90
47765;DHT22;33529;49.242;8.670;2023-08-07T07:08:03;13.10;99.90
47765;DHT22;33529;49.242;8.670;2023-08-07T07:10:30;13.00;99.90
47765;DHT22;33529;49.242;8.670;2023-08-07T07:12:58;13.00;99.90
47765;DHT22;33529;49.242;8.670;2023-08-07T07:15:27;13.00;99.90
47765;DHT22;33529;49.242;8.670;2023-08-07T07:17:54;13.00;99.90
47765;DHT22;33529;49.242;8.670;2023-08-07T07:20:21;13.00;99.90
47765;DHT22;33529;49.242;8.670;2023-08-07T07:22:48;13.00;99.90
47765;DHT22;33529;49.242;8.670;2023-08-07T07:25:15;12.90;99.90
47765;DHT22;33529;49.242;8.670;2023-08-07T07:27:42;12.90;99.90
47765;DHT22;33529;49.242;8.670;2023-08-07T07:30:09;13.00;99.90
47765;DHT22;33529;49.242;8.670;2023-08-07T07:32:36;13.10;99.90
47765;DHT22;33529;49.242;8.670;2023-08-07T07:35:03;13.10;99.90
47765;DHT22;33529;49.242;8.670;2023-08-07T07:37:31;13.20;99.90
47765;DHT22;33529;49.242;8.670;2023-08-07T07:39:58;13.30;99.90
47765;DHT22;33529;49.242;8.670;2023-08-07T07:42:25;13.40;99.90
47765;DHT22;33529;49.242;8.670;2023-08-07T07:44:52;13.50;99.90
47765;DHT22;33529;49.242;8.670;2023-08-07T07:47:19;13.50;99.90
47765;DHT22;33529;49.242;8.670;2023-08-07T07:49:47;13.50;99.90
47765;DHT22;33529;49.242;8.670;2023-08-07T07:52:14;13.60;99.90
47765;DHT22;33529;49.242;8.670;2023-08-07T07:54:41;13.70;99.90
47765;DHT22;33529;49.242;8.670;2023-08-07T07:57:08;13.70;99.90
47765;DHT22;33529;49.242;8.670;2023-08-07T07:59:35;13.60;99.90
47765;DHT22;33529;49.242;8.670;2023-08-07T08:02:02;13.60;99.90
47765;DHT22;33529;49.242;8.670;2023-08-07T08:04:29;13.60;99.90
47765;DHT22;33529;49.242;8.670;2023-08-07T08:06:56;13.60;99.90
47765;DHT22;33529;49.242;8.670;2023-08-07T08:09:23;13.60;99.90
47765;DHT22;33529;49.242;8.670;2023-08-07T08:11:50;13.70;99.90
47765;DHT22;33529;49.242;8.670;2023-08-07T08:14:17;13.70;99.90
47765;DHT22;33529;49.242;8.670;2023-08-07T08:16:43;13.90;99.90
47765;DHT22;33529;49.242;8.670;2023-08-07T08:19:10;14.00;99.90
47765;DHT22;33529;49.242;8.670;2023-08-07T08:21:38;14.00;99.90
47765;DHT22;33529;49.242;8.670;2023-08-07T08:24:07;14.30;99.90
47765;DHT22;33529;49.242;8.670;2023-08-07T08:26:34;14.40;99.90
47765;DHT22;33529;49.242;8.670;2023-08-07T08:29:01;14.60;99.90
47765;DHT22;33529;49.242;8.670;2023-08-07T08:31:27;14.70;99.90
47765;DHT22;33529;49.242;8.670;2023-08-07T08:33:55;14.80;99.90
47765;DHT22;33529;49.242;8.670;2023-08-07T08:36:22;15.00;99.90
47765;DHT22;33529;49.242;8.670;2023-08-07T08:38:49;15.00;99.90
47765;DHT22;33529;49.242;8.670;2023-08-07T08:41:16;15.10;99.90
47765;DHT22;33529;49.242;8.670;2023-08-07T08:43:46;15.20;99.90
47765;DHT22;33529;49.242;8.670;2023-08-07T08:46:15;15.20;99.90
47765;DHT22;33529;49.242;8.670;2023-08-07T08:48:49;15.20;99.90
47765;DHT22;33529;49.242;8.670;2023-08-07T08:51:17;15.20;99.90
47765;DHT22;33529;49.242;8.670;2023-08-07T08:53:51;15.30;99.90
47765;DHT22;33529;49.242;8.670;2023-08-07T08:56:18;15.40;99.90
47765;DHT22;33529;49.242;8.670;2023-08-07T08:58:52;15.40;99.90
47765;DHT22;33529;49.242;8.670;2023-08-07T09:01:19;15.50;99.90
47765;DHT22;33529;49.242;8.670;2023-08-07T09:03:49;15.50;99.90
47765;DHT22;33529;49.242;8.670;2023-08-07T09:06:19;15.50;99.90
47765;DHT22;33529;49.242;8.670;2023-08-07T09:08:46;15.50;99.90
47765;DHT22;33529;49.242;8.670;2023-08-07T09:11:13;15.60;99.90
47765;DHT22;33529;49.242;8.670;2023-08-07T09:13:42;15.60;99.90
47765;DHT22;33529;49.242;8.670;2023-08-07T09:16:10;15.70;99.90
47765;DHT22;33529;49.242;8.670;2023-08-07T09:18:38;15.90;99.90
47765;DHT22;33529;49.242;8.670;2023-08-07T09:21:05;16.30;99.90
47765;DHT22;33529;49.242;8.670;2023-08-07T09:23:32;16.50;99.90
47765;DHT22;33529;49.242;8.670;2023-08-07T09:26:00;16.40;99.90
47765;DHT22;33529;49.242;8.670;2023-08-07T09:28:28;16.30;99.90
47765;DHT22;33529;49.242;8.670;2023-08-07T09:30:56;16.40;99.90
47765;DHT22;33529;49.242;8.670;2023-08-07T09:33:27;16.30;99.90
47765;DHT22;33529;49.242;8.670;2023-08-07T09:36:01;16.40;99.90
47765;DHT22;33529;49.242;8.670;2023-08-07T09:38:29;16.70;99.90
47765;DHT22;33529;49.242;8.670;2023-08-07T09:41:03;17.10;99.90
47765;DHT22;33529;49.242;8.670;2023-08-07T09:43:34;17.20;99.90
47765;DHT22;33529;49.242;8.670;2023-08-07T09:46:03;17.10;99.90
47765;DHT22;33529;49.242;8.670;2023-08-07T09:48:30;17.00;99.90
47765;DHT22;33529;49.242;8.670;2023-08-07T09:51:01;16.90;99.90
47765;DHT22;33529;49.242;8.670;2023-08-07T09:53:31;16.90;99.90
47765;DHT22;33529;49.242;8.670;2023-08-07T09:55:58;16.90;99.90
47765;DHT22;33529;49.242;8.670;2023-08-07T09:58:25;16.70;99.90
47765;DHT22;33529;49.242;8.670;2023-08-07T10:00:52;16.40;99.90
47765;DHT22;33529;49.242;8.670;2023-08-07T10:03:26;16.30;99.90
47765;DHT22;33529;49.242;8.670;2023-08-07T10:05:54;16.30;99.90
47765;DHT22;33529;49.242;8.670;2023-08-07T10:08:22;16.30;99.90
47765;DHT22;33529;49.242;8.670;2023-08-07T10:10:49;16.40;99.90
47765;DHT22;33529;49.242;8.670;2023-08-07T10:13:16;16.40;99.90
47765;DHT22;33529;49.242;8.670;2023-08-07T10:15:47;16.50;99.90
47765;DHT22;33529;49.242;8.670;2023-08-07T10:18:15;16.30;99.90
47765;DHT22;33529;49.242;8.670;2023-08-07T10:20:42;16.30;99.90
47765;DHT22;33529;49.242;8.670;2023-08-07T10:23:12;16.30;99.90
47765;DHT22;33529;49.242;8.670;2023-08-07T10:25:43;16.50;99.90
47765;DHT22;33529;49.242;8.670;2023-08-07T10:28:15;16.50;99.90
47765;DHT22;33529;49.242;8.670;2023-08-07T10:30:43;16.40;99.90
47765;DHT22;33529;49.242;8.670;2023-08-07T10:33:12;16.40;99.90
47765;DHT22;33529;49.242;8.670;2023-08-07T10:35:45;16.20;99.90
47765;DHT22;33529;49.242;8.670;2023-08-07T10:38:13;16.10;99.90
47765;DHT22;33529;49.242;8.670;2023-08-07T10:41:13;16.10;99.90
47765;DHT22;33529;49.242;8.670;2023-08-07T10:43:43;16.20;99.90
47765;DHT22;33529;49.242;8.670;2023-08-07T10:46:20;16.20;99.90
47765;DHT22;33529;49.242;8.670;2023-08-07T10:48:55;16.20;99.90
47765;DHT22;33529;49.242;8.670;2023-08-07T10:51:29;16.30;99.90
47765;DHT22;33529;49.242;8.670;2023-08-07T10:54:01;16.40;99.90
47765;DHT22;33529;49.242;8.670;2023-08-07T10:56:33;16.30;99.90
47765;DHT22;33529;49.242;8.670;2023-08-07T10:59:10;16.30;99.90
47765;DHT22;33529;49.242;8.670;2023-08-07T11:04:13;16.10;99.90
47765;DHT22;33529;49.242;8.670;2023-08-07T11:06:42;16.20;99.90
47765;DHT22;33529;49.242;8.670;2023-08-07T11:09:10;16.20;99.90
47765;DHT22;33529;49.242;8.670;2023-08-07T11:11:45;16.00;99.90
47765;DHT22;33529;49.242;8.670;2023-08-07T11:14:15;16.00;99.90
47765;DHT22;33529;49.242;8.670;2023-08-07T11:16:42;15.90;99.90
47765;DHT22;33529;49.242;8.670;2023-08-07T11:19:10;15.80;99.90
47765;DHT22;33529;49.242;8.670;2023-08-07T11:21:38;15.80;99.90
47765;DHT22;33529;49.242;8.670;2023-08-07T11:24:05;15.80;99.90
47765;DHT22;33529;49.242;8.670;2023-08-07T11:26:31;15.70;99.90
47765;DHT22;33529;49.242;8.670;2023-08-07T11:28:58;15.60;99.90
47765;DHT22;33529;49.242;8.670;2023-08-07T11:31:25;15.70;99.90
47765;DHT22;33529;49.242;8.670;2023-08-07T11:33:54;15.70;99.90
47765;DHT22;33529;49.242;8.670;2023-08-07T11:36:22;15.70;99.90
47765;DHT22;33529;49.242;8.670;2023-08-07T11:38:49;15.70;99.90
47765;DHT22;33529;49.242;8.670;2023-08-07T11:41:18;15.80;99.90
47765;DHT22;33529;49.242;8.670;2023-08-07T11:43:46;15.80;99.90
47765;DHT22;33529;49.242;8.670;2023-08-07T11:46:14;16.00;99.90
47765;DHT22;33529;49.242;8.670;2023-08-07T11:48:43;16.30;99.90
47765;DHT22;33529;49.242;8.670;2023-08-07T11:51:11;16.50;99.90
47765;DHT22;33529;49.242;8.670;2023-08-07T11:53:40;16.80;99.90
47765;DHT22;33529;49.242;8.670;2023-08-07T11:56:12;16.90;99.90
47765;DHT22;33529;49.242;8.670;2023-08-07T11:58:44;17.00;99.90
47765;DHT22;33529;49.242;8.670;2023-08-07T12:01:37;17.00;99.90
47765;DHT22;33529;49.242;8.670;2023-08-07T12:06:32;17.20;99.90
47765;DHT22;33529;49.242;8.670;2023-08-07T12:09:00;17.30;99.90
47765;DHT22;33529;49.242;8.670;2023-08-07T12:11:29;17.30;99.90
47765;DHT22;33529;49.242;8.670;2023-08-07T12:14:00;17.50;99.90
47765;DHT22;33529;49.242;8.670;2023-08-07T12:16:32;17.90;99.90
47765;DHT22;33529;49.242;8.670;2023-08-07T12:18:59;18.40;99.90
47765;DHT22;33529;49.242;8.670;2023-08-07T12:21:26;18.40;99.90
47765;DHT22;33529;49.242;8.670;2023-08-07T12:23:59;18.30;99.90
47765;DHT22;33529;49.242;8.670;2023-08-07T12:26:25;18.30;99.90
47765;DHT22;33529;49.242;8.670;2023-08-07T12:28:53;18.60;99.90
47765;DHT22;33529;49.242;8.670;2023-08-07T12:31:20;18.70;99.90
47765;DHT22;33529;49.242;8.670;2023-08-07T12:33:47;18.80;99.90
47765;DHT22;33529;49.242;8.670;2023-08-07T12:36:15;18.70;99.90
47765;DHT22;33529;49.242;8.670;2023-08-07T12:38:46;18.40;99.90
47765;DHT22;33529;49.242;8.670;2023-08-07T12:41:14;18.30;99.90
47765;DHT22;33529;49.242;8.670;2023-08-07T12:43:44;18.20;99.90
47765;DHT22;33529;49.242;8.670;2023-08-07T12:46:11;18.30;99.90
47765;DHT22;33529;49.242;8.670;2023-08-07T12:48:40;18.50;99.90
47765;DHT22;33529;49.242;8.670;2023-08-07T12:51:07;18.70;99.90
47765;DHT22;33529;49.242;8.670;2023-08-07T12:53:34;18.90;99.90
47765;DHT22;33529;49.242;8.670;2023-08-07T12:56:01;18.90;99.90
47765;DHT22;33529;49.242;8.670;2023-08-07T12:58:29;19.00;99.90
47765;DHT22;33529;49.242;8.670;2023-08-07T13:00:56;19.10;99.90
47765;DHT22;33529;49.242;8.670;2023-08-07T13:03:24;19.20;99.90
47765;DHT22;33529;49.242;8.670;2023-08-07T13:05:50;19.10;99.90
47765;DHT22;33529;49.242;8.670;2023-08-07T13:08:17;19.20;99.90
47765;DHT22;33529;49.242;8.670;2023-08-07T13:10:44;19.50;99.90
47765;DHT22;33529;49.242;8.670;2023-08-07T13:13:16;19.90;99.90
47765;DHT22;33529;49.242;8.670;2023-08-07T13:15:45;19.70;99.90
47765;DHT22;33529;49.242;8.670;2023-08-07T13:18:12;19.50;99.90
47765;DHT22;33529;49.242;8.670;2023-08-07T13:20:40;19.50;99.90
47765;DHT22;33529;49.242;8.670;2023-08-07T13:23:07;19.40;99.90
47765;DHT22;33529;49.242;8.670;2023-08-07T13:25:34;19.40;99.90
47765;DHT22;33529;49.242;8.670;2023-08-07T13:28:01;19.40;99.90
47765;DHT22;33529;49.242;8.670;2023-08-07T13:30:31;19.40;99.90
47765;DHT22;33529;49.242;8.670;2023-08-07T13:33:03;19.60;99.90
47765;DHT22;33529;49.242;8.670;2023-08-07T13:35:30;19.90;99.90
47765;DHT22;33529;49.242;8.670;2023-08-07T13:37:57;20.20;99.90
47765;DHT22;33529;49.242;8.670;2023-08-07T13:40:24;20.30;99.90
47765;DHT22;33529;49.242;8.670;2023-08-07T13:42:51;20.40;99.90
47765;DHT22;33529;49.242;8.670;2023-08-07T13:45:19;20.30;99.90
47765;DHT22;33529;49.242;8.670;2023-08-07T13:47:46;20.10;99.90
47765;DHT22;33529;49.242;8.670;2023-08-07T13:50:13;19.90;99.90
47765;DHT22;33529;49.242;8.670;2023-08-07T13:52:40;19.90;99.90
47765;DHT22;33529;49.242;8.670;2023-08-07T13:55:07;19.90;99.90
47765;DHT22;33529;49.242;8.670;2023-08-07T13:57:36;20.00;99.90
47765;DHT22;33529;49.242;8.670;2023-08-07T14:00:03;20.20;99.90
47765;DHT22;33529;49.242;8.670;2023-08-07T14:02:30;20.40;99.90
47765;DHT22;33529;49.242;8.670;2023-08-07T14:04:58;20.50;99.90
47765;DHT22;33529;49.242;8.670;2023-08-07T14:07:25;20.60;99.90
47765;DHT22;33529;49.242;8.670;2023-08-07T14:09:52;20.50;99.90
47765;DHT22;33529;49.242;8.670;2023-08-07T14:12:19;20.40;99.90
47765;DHT22;33529;49.242;8.670;2023-08-07T14:14:46;20.20;97.50
47765;DHT22;33529;49.242;8.670;2023-08-07T14:17:13;19.70;95.90
47765;DHT22;33529;49.242;8.670;2023-08-07T14:19:40;19.50;98.60
47765;DHT22;33529;49.242;8.670;2023-08-07T14:22:06;19.50;98.30
47765;DHT22;33529;49.242;8.670;2023-08-07T14:24:33;19.80;99.90
47765;DHT22;33529;49.242;8.670;2023-08-07T14:27:00;20.20;99.90
47765;DHT22;33529;49.242;8.670;2023-08-07T14:29:27;20.60;97.50
47765;DHT22;33529;49.242;8.670;2023-08-07T14:31:54;20.80;96.50
47765;DHT22;33529;49.242;8.670;2023-08-07T14:34:20;21.20;96.70
47765;DHT22;33529;49.242;8.670;2023-08-07T14:36:47;21.40;94.20
47765;DHT22;33529;49.242;8.670;2023-08-07T14:39:14;21.50;95.60
47765;DHT22;33529;49.242;8.670;2023-08-07T14:41:41;21.50;95.70
47765;DHT22;33529;49.242;8.670;2023-08-07T14:44:08;21.20;94.20
47765;DHT22;33529;49.242;8.670;2023-08-07T14:46:34;20.80;94.00
47765;DHT22;33529;49.242;8.670;2023-08-07T14:49:01;20.50;95.70
47765;DHT22;33529;49.242;8.670;2023-08-07T14:51:28;20.40;94.10
47765;DHT22;33529;49.242;8.670;2023-08-07T14:53:55;20.60;96.30
47765;DHT22;33529;49.242;8.670;2023-08-07T14:56:22;22.10;92.50
47765;DHT22;33529;49.242;8.670;2023-08-07T14:58:49;23.60;93.50
47765;DHT22;33529;49.242;8.670;2023-08-07T15:01:15;24.60;88.70
47765;DHT22;33529;49.242;8.670;2023-08-07T15:03:42;24.90;86.80
47765;DHT22;33529;49.242;8.670;2023-08-07T15:06:09;25.10;86.40
47765;DHT22;33529;49.242;8.670;2023-08-07T15:08:36;24.30;87.80
47765;DHT22;33529;49.242;8.670;2023-08-07T15:11:03;23.20;91.00
47765;DHT22;33529;49.242;8.670;2023-08-07T15:13:30;22.50;91.40
47765;DHT22;33529;49.242;8.670;2023-08-07T15:15:57;22.10;91.80
47765;DHT22;33529;49.242;8.670;2023-08-07T15:18:24;22.30;91.40
47765;DHT22;33529;49.242;8.670;2023-08-07T15:20:51;23.90;90.90
47765;DHT22;33529;49.242;8.670;2023-08-07T15:23:18;24.50;89.10
47765;DHT22;33529;49.242;8.670;2023-08-07T15:25:45;25.20;86.10
47765;DHT22;33529;49.242;8.670;2023-08-07T15:28:11;24.80;85.90
47765;DHT22;33529;49.242;8.670;2023-08-07T15:30:38;23.70;86.80
47765;DHT22;33529;49.242;8.670;2023-08-07T15:33:05;22.70;90.00
47765;DHT22;33529;49.242;8.670;2023-08-07T15:35:32;21.70;92.90
47765;DHT22;33529;49.242;8.670;2023-08-07T15:37:59;21.10;93.40
47765;DHT22;33529;49.242;8.670;2023-08-07T15:40:28;20.50;94.50
47765;DHT22;33529;49.242;8.670;2023-08-07T15:42:55;20.10;96.00